sensor_id;sensor_type;location;lat;lon;timestamp;temperature;humidity
65231;DHT22;51813;40.666;16.602;2023-05-10T00:02:09;19.70;67.60
65231;DHT22;51813;40.666;16.602;2023-05-10T00:04:35;19.70;67.40
65231;DHT22;51813;40.666;16.602;2023-05-10T00:07:00;19.70;67.50
65231;DHT22;51813;40.666;16.602;2023-05-10T00:09:27;19.70;67.50
65231;DHT22;51813;40.666;16.602;2023-05-10T00:11:52;19.70;67.50
65231;DHT22;51813;40.666;16.602;2023-05-10T00:14:18;19.70;67.40
65231;DHT22;51813;40.666;16.602;2023-05-10T00:16:44;19.70;67.50
65231;DHT22;51813;40.666;16.602;2023-05-10T00:19:10;19.70;67.40
65231;DHT22;51813;40.666;16.602;2023-05-10T00:21:36;19.70;67.70
65231;DHT22;51813;40.666;16.602;2023-05-10T00:24:01;19.70;67.50
65231;DHT22;51813;40.666;16.602;2023-05-10T00:26:27;19.70;67.50
65231;DHT22;51813;40.666;16.602;2023-05-10T00:28:53;19.70;67.40
65231;DHT22;51813;40.666;16.602;2023-05-10T00:31:19;19.70;67.60
65231;DHT22;51813;40.666;16.602;2023-05-10T00:33:44;19.70;67.60
65231;DHT22;51813;40.666;16.602;2023-05-10T00:36:11;19.60;67.30
65231;DHT22;51813;40.666;16.602;2023-05-10T00:38:36;19.70;67.50
65231;DHT22;51813;40.666;16.602;2023-05-10T00:41:02;19.70;67.40
65231;DHT22;51813;40.666;16.602;2023-05-10T00:43:28;19.70;67.50
65231;DHT22;51813;40.666;16.602;2023-05-10T00:45:54;19.60;67.40
65231;DHT22;51813;40.666;16.602;2023-05-10T00:48:21;19.60;67.40
65231;DHT22;51813;40.666;16.602;2023-05-10T00:50:47;19.60;67.40
65231;DHT22;51813;40.666;16.602;2023-05-10T00:53:13;19.60;67.30
65231;DHT22;51813;40.666;16.602;2023-05-10T00:55:39;19.60;67.40
65231;DHT22;51813;40.666;16.602;2023-05-10T00:58:05;19.60;67.20
65231;DHT22;51813;40.666;16.602;2023-05-10T01:00:32;19.60;67.30
65231;DHT22;51813;40.666;16.602;2023-05-10T01:02:58;19.60;67.30
65231;DHT22;51813;40.666;16.602;2023-05-10T01:05:24;19.70;67.30
65231;DHT22;51813;40.666;16.602;2023-05-10T01:07:50;19.70;67.40
65231;DHT22;51813;40.666;16.602;2023-05-10T01:10:16;19.60;67.20
65231;DHT22;51813;40.666;16.602;2023-05-10T01:12:44;19.60;67.20
65231;DHT22;51813;40.666;16.602;2023-05-10T01:15:11;19.60;67.10
65231;DHT22;51813;40.666;16.602;2023-05-10T01:17:39;19.60;67.10
65231;DHT22;51813;40.666;16.602;2023-05-10T01:20:06;19.60;67.20
65231;DHT22;51813;40.666;16.602;2023-05-10T01:28:11;19.60;67.10
65231;DHT22;51813;40.666;16.602;2023-05-10T01:33:52;19.60;67.20
65231;DHT22;51813;40.666;16.602;2023-05-10T01:36:32;19.60;67.20
65231;DHT22;51813;40.666;16.602;2023-05-10T01:39:20;19.60;67.20
65231;DHT22;51813;40.666;16.602;2023-05-10T01:44:35;19.60;67.10
65231;DHT22;51813;40.666;16.602;2023-05-10T01:47:16;19.60;67.20
65231;DHT22;51813;40.666;16.602;2023-05-10T01:49:54;19.50;67.10
65231;DHT22;51813;40.666;16.602;2023-05-10T01:52:26;19.60;67.20
65231;DHT22;51813;40.666;16.602;2023-05-10T01:55:04;19.60;67.20
65231;DHT22;51813;40.666;16.602;2023-05-10T01:59:59;19.60;67.10
65231;DHT22;51813;40.666;16.602;2023-05-10T02:02:27;19.60;67.10
65231;DHT22;51813;40.666;16.602;2023-05-10T02:04:55;19.60;67.10
65231;DHT22;51813;40.666;16.602;2023-05-10T02:07:23;19.60;67.20
65231;DHT22;51813;40.666;16.602;2023-05-10T02:09:49;19.50;67.10
65231;DHT22;51813;40.666;16.602;2023-05-10T02:12:17;19.50;67.10
65231;DHT22;51813;40.666;16.602;2023-05-10T02:14:44;19.50;67.20
65231;DHT22;51813;40.666;16.602;2023-05-10T02:17:11;19.50;67.10
65231;DHT22;51813;40.666;16.602;2023-05-10T02:19:39;19.50;67.00
65231;DHT22;51813;40.666;16.602;2023-05-10T02:22:06;19.50;67.10
65231;DHT22;51813;40.666;16.602;2023-05-10T02:24:34;19.50;67.10
65231;DHT22;51813;40.666;16.602;2023-05-10T02:27:03;19.60;67.10
65231;DHT22;51813;40.666;16.602;2023-05-10T02:29:31;19.60;67.20
65231;DHT22;51813;40.666;16.602;2023-05-10T02:31:57;19.60;67.20
65231;DHT22;51813;40.666;16.602;2023-05-10T02:34:25;19.50;67.00
65231;DHT22;51813;40.666;16.602;2023-05-10T02:36:53;19.50;67.10
65231;DHT22;51813;40.666;16.602;2023-05-10T02:39:21;19.50;67.00
65231;DHT22;51813;40.666;16.602;2023-05-10T02:41:49;19.50;67.00
65231;DHT22;51813;40.666;16.602;2023-05-10T02:44:18;19.50;67.10
65231;DHT22;51813;40.666;16.602;2023-05-10T02:46:44;19.60;67.10
65231;DHT22;51813;40.666;16.602;2023-05-10T02:49:10;19.50;67.10
65231;DHT22;51813;40.666;16.602;2023-05-10T02:51:50;19.60;67.10
65231;DHT22;51813;40.666;16.602;2023-05-10T02:54:20;19.60;67.20
65231;DHT22;51813;40.666;16.602;2023-05-10T02:56:56;19.60;67.10
65231;DHT22;51813;40.666;16.602;2023-05-10T02:59:22;19.60;67.10
65231;DHT22;51813;40.666;16.602;2023-05-10T03:01:48;19.50;67.10
65231;DHT22;51813;40.666;16.602;2023-05-10T03:04:13;19.60;67.10
65231;DHT22;51813;40.666;16.602;2023-05-10T03:06:39;19.50;67.10
65231;DHT22;51813;40.666;16.602;2023-05-10T03:09:05;19.50;67.10
65231;DHT22;51813;40.666;16.602;2023-05-10T03:17:15;19.50;67.40
65231;DHT22;51813;40.666;16.602;2023-05-10T03:22:11;19.50;67.30
65231;DHT22;51813;40.666;16.602;2023-05-10T03:24:39;19.50;67.30
65231;DHT22;51813;40.666;16.602;2023-05-10T03:27:08;19.50;67.30
65231;DHT22;51813;40.666;16.602;2023-05-10T03:29:34;19.50;67.40
65231;DHT22;51813;40.666;16.602;2023-05-10T03:32:00;19.50;67.40
65231;DHT22;51813;40.666;16.602;2023-05-10T03:34:26;19.50;67.50
65231;DHT22;51813;40.666;16.602;2023-05-10T03:36:52;19.50;67.30
65231;DHT22;51813;40.666;16.602;2023-05-10T03:39:18;19.50;67.40
65231;DHT22;51813;40.666;16.602;2023-05-10T03:41:43;19.50;67.30
65231;DHT22;51813;40.666;16.602;2023-05-10T03:44:09;19.50;67.40
65231;DHT22;51813;40.666;16.602;2023-05-10T03:46:35;19.50;67.40
65231;DHT22;51813;40.666;16.602;2023-05-10T03:49:00;19.50;67.30
65231;DHT22;51813;40.666;16.602;2023-05-10T03:51:26;19.50;67.30
65231;DHT22;51813;40.666;16.602;2023-05-10T03:53:54;19.50;67.60
65231;DHT22;51813;40.666;16.602;2023-05-10T03:56:20;19.50;67.40
65231;DHT22;51813;40.666;16.602;2023-05-10T03:58:46;19.50;67.50
65231;DHT22;51813;40.666;16.602;2023-05-10T04:01:12;19.50;67.50
65231;DHT22;51813;40.666;16.602;2023-05-10T04:03:38;19.50;67.40
65231;DHT22;51813;40.666;16.602;2023-05-10T04:06:04;19.50;67.50
65231;DHT22;51813;40.666;16.602;2023-05-10T04:08:30;19.50;67.60
65231;DHT22;51813;40.666;16.602;2023-05-10T04:11:08;19.60;67.60
65231;DHT22;51813;40.666;16.602;2023-05-10T04:13:34;19.50;67.50
65231;DHT22;51813;40.666;16.602;2023-05-10T04:16:00;19.50;67.70
65231;DHT22;51813;40.666;16.602;2023-05-10T04:18:26;19.50;67.70
65231;DHT22;51813;40.666;16.602;2023-05-10T04:20:51;19.50;67.70
65231;DHT22;51813;40.666;16.602;2023-05-10T04:23:17;19.50;67.60
65231;DHT22;51813;40.666;16.602;2023-05-10T04:25:43;19.50;67.60
65231;DHT22;51813;40.666;16.602;2023-05-10T04:28:09;19.50;67.60
65231;DHT22;51813;40.666;16.602;2023-05-10T04:30:34;19.50;67.60
65231;DHT22;51813;40.666;16.602;2023-05-10T04:33:00;19.50;67.70
65231;DHT22;51813;40.666;16.602;2023-05-10T04:35:29;19.50;67.70
65231;DHT22;51813;40.666;16.602;2023-05-10T04:37:55;19.50;67.60
65231;DHT22;51813;40.666;16.602;2023-05-10T04:40:21;19.50;67.80
65231;DHT22;51813;40.666;16.602;2023-05-10T04:42:47;19.50;67.80
65231;DHT22;51813;40.666;16.602;2023-05-10T04:45:13;19.50;67.70
65231;DHT22;51813;40.666;16.602;2023-05-10T04:47:40;19.50;67.70
65231;DHT22;51813;40.666;16.602;2023-05-10T04:50:06;19.50;67.80
65231;DHT22;51813;40.666;16.602;2023-05-10T04:52:32;19.50;67.90
65231;DHT22;51813;40.666;16.602;2023-05-10T04:54:58;19.50;67.80
65231;DHT22;51813;40.666;16.602;2023-05-10T04:57:24;19.50;67.90
65231;DHT22;51813;40.666;16.602;2023-05-10T04:59:49;19.50;67.90
65231;DHT22;51813;40.666;16.602;2023-05-10T05:02:15;19.50;67.90
65231;DHT22;51813;40.666;16.602;2023-05-10T05:04:41;19.50;67.90
65231;DHT22;51813;40.666;16.602;2023-05-10T05:07:06;19.50;67.90
65231;DHT22;51813;40.666;16.602;2023-05-10T05:09:32;19.50;68.00
65231;DHT22;51813;40.666;16.602;2023-05-10T05:11:58;19.50;67.80
65231;DHT22;51813;40.666;16.602;2023-05-10T05:14:23;19.50;67.80
65231;DHT22;51813;40.666;16.602;2023-05-10T05:16:51;19.50;67.80
65231;DHT22;51813;40.666;16.602;2023-05-10T05:19:17;19.50;67.90
65231;DHT22;51813;40.666;16.602;2023-05-10T05:21:43;19.50;67.80
65231;DHT22;51813;40.666;16.602;2023-05-10T05:24:08;19.50;67.80
65231;DHT22;51813;40.666;16.602;2023-05-10T05:26:35;19.50;68.00
65231;DHT22;51813;40.666;16.602;2023-05-10T05:29:02;19.50;67.80
65231;DHT22;51813;40.666;16.602;2023-05-10T05:31:28;19.50;67.90
65231;DHT22;51813;40.666;16.602;2023-05-10T05:33:54;19.50;68.00
65231;DHT22;51813;40.666;16.602;2023-05-10T05:36:20;19.50;68.00
65231;DHT22;51813;40.666;16.602;2023-05-10T05:38:46;19.50;68.20
65231;DHT22;51813;40.666;16.602;2023-05-10T05:41:12;19.50;68.10
65231;DHT22;51813;40.666;16.602;2023-05-10T05:43:38;19.50;68.10
65231;DHT22;51813;40.666;16.602;2023-05-10T05:46:04;19.50;68.10
65231;DHT22;51813;40.666;16.602;2023-05-10T05:48:30;19.50;68.30
65231;DHT22;51813;40.666;16.602;2023-05-10T05:50:56;19.50;68.30
65231;DHT22;51813;40.666;16.602;2023-05-10T05:53:22;19.50;68.20
65231;DHT22;51813;40.666;16.602;2023-05-10T05:55:52;19.50;67.90
65231;DHT22;51813;40.666;16.602;2023-05-10T05:58:19;19.50;68.40
65231;DHT22;51813;40.666;16.602;2023-05-10T06:00:45;19.50;68.20
65231;DHT22;51813;40.666;16.602;2023-05-10T06:03:11;19.50;68.10
65231;DHT22;51813;40.666;16.602;2023-05-10T06:05:36;19.50;68.20
65231;DHT22;51813;40.666;16.602;2023-05-10T06:08:02;19.50;68.30
65231;DHT22;51813;40.666;16.602;2023-05-10T06:10:28;19.50;68.10
65231;DHT22;51813;40.666;16.602;2023-05-10T06:12:53;19.50;68.40
65231;DHT22;51813;40.666;16.602;2023-05-10T06:15:19;19.50;68.30
65231;DHT22;51813;40.666;16.602;2023-05-10T06:17:45;19.50;68.30
65231;DHT22;51813;40.666;16.602;2023-05-10T06:20:12;19.50;68.50
65231;DHT22;51813;40.666;16.602;2023-05-10T06:22:38;19.50;68.60
65231;DHT22;51813;40.666;16.602;2023-05-10T06:25:04;19.50;68.70
65231;DHT22;51813;40.666;16.602;2023-05-10T06:27:30;19.50;68.40
65231;DHT22;51813;40.666;16.602;2023-05-10T06:29:56;19.50;68.30
65231;DHT22;51813;40.666;16.602;2023-05-10T06:32:21;19.50;68.30
65231;DHT22;51813;40.666;16.602;2023-05-10T06:34:47;19.50;68.50
65231;DHT22;51813;40.666;16.602;2023-05-10T06:37:13;19.50;68.40
65231;DHT22;51813;40.666;16.602;2023-05-10T06:39:38;19.50;68.70
65231;DHT22;51813;40.666;16.602;2023-05-10T06:42:04;19.50;68.70
65231;DHT22;51813;40.666;16.602;2023-05-10T06:44:30;19.50;68.70
65231;DHT22;51813;40.666;16.602;2023-05-10T06:46:56;19.50;68.40
65231;DHT22;51813;40.666;16.602;2023-05-10T06:49:21;19.50;68.50
65231;DHT22;51813;40.666;16.602;2023-05-10T06:51:47;19.50;68.70
65231;DHT22;51813;40.666;16.602;2023-05-10T06:54:13;19.50;68.70
65231;DHT22;51813;40.666;16.602;2023-05-10T06:56:39;19.50;68.60
65231;DHT22;51813;40.666;16.602;2023-05-10T06:59:05;19.50;68.60
65231;DHT22;51813;40.666;16.602;2023-05-10T07:01:31;19.50;68.90
65231;DHT22;51813;40.666;16.602;2023-05-10T07:03:56;19.50;68.80
65231;DHT22;51813;40.666;16.602;2023-05-10T07:06:22;19.50;69.00
65231;DHT22;51813;40.666;16.602;2023-05-10T07:08:48;19.50;68.90
65231;DHT22;51813;40.666;16.602;2023-05-10T07:11:13;19.50;68.90
65231;DHT22;51813;40.666;16.602;2023-05-10T07:13:39;19.50;68.80
65231;DHT22;51813;40.666;16.602;2023-05-10T07:16:06;19.40;68.60
65231;DHT22;51813;40.666;16.602;2023-05-10T07:18:33;19.50;69.00
65231;DHT22;51813;40.666;16.602;2023-05-10T07:20:59;19.40;70.00
65231;DHT22;51813;40.666;16.602;2023-05-10T07:23:25;19.40;70.20
65231;DHT22;51813;40.666;16.602;2023-05-10T07:25:51;19.40;69.80
65231;DHT22;51813;40.666;16.602;2023-05-10T07:28:17;19.50;69.80
65231;DHT22;51813;40.666;16.602;2023-05-10T07:30:44;19.50;69.60
65231;DHT22;51813;40.666;16.602;2023-05-10T07:33:10;19.50;69.50
65231;DHT22;51813;40.666;16.602;2023-05-10T07:35:36;19.50;69.50
65231;DHT22;51813;40.666;16.602;2023-05-10T07:38:02;19.50;70.00
65231;DHT22;51813;40.666;16.602;2023-05-10T07:40:28;19.50;69.80
65231;DHT22;51813;40.666;16.602;2023-05-10T07:42:54;19.50;70.00
65231;DHT22;51813;40.666;16.602;2023-05-10T07:45:20;19.50;70.00
65231;DHT22;51813;40.666;16.602;2023-05-10T07:47:45;19.60;70.00
65231;DHT22;51813;40.666;16.602;2023-05-10T07:50:11;19.50;69.90
65231;DHT22;51813;40.666;16.602;2023-05-10T07:52:37;19.50;70.60
65231;DHT22;51813;40.666;16.602;2023-05-10T07:55:03;19.50;71.40
65231;DHT22;51813;40.666;16.602;2023-05-10T07:57:28;19.50;71.10
65231;DHT22;51813;40.666;16.602;2023-05-10T07:59:54;19.60;70.80
65231;DHT22;51813;40.666;16.602;2023-05-10T08:02:20;19.50;70.80
65231;DHT22;51813;40.666;16.602;2023-05-10T08:04:45;19.50;70.60
65231;DHT22;51813;40.666;16.602;2023-05-10T08:07:11;19.60;70.60
65231;DHT22;51813;40.666;16.602;2023-05-10T08:12:05;19.50;70.20
65231;DHT22;51813;40.666;16.602;2023-05-10T08:14:31;19.50;70.20
65231;DHT22;51813;40.666;16.602;2023-05-10T08:16:57;19.60;70.10
65231;DHT22;51813;40.666;16.602;2023-05-10T08:19:23;19.60;70.20
65231;DHT22;51813;40.666;16.602;2023-05-10T08:21:49;19.60;70.30
65231;DHT22;51813;40.666;16.602;2023-05-10T08:24:15;19.60;70.50
65231;DHT22;51813;40.666;16.602;2023-05-10T08:26:40;19.60;70.50
65231;DHT22;51813;40.666;16.602;2023-05-10T08:29:06;19.60;70.80
65231;DHT22;51813;40.666;16.602;2023-05-10T08:31:32;19.50;71.30
65231;DHT22;51813;40.666;16.602;2023-05-10T08:33:57;19.50;71.70
65231;DHT22;51813;40.666;16.602;2023-05-10T08:36:23;19.60;71.80
65231;DHT22;51813;40.666;16.602;2023-05-10T08:38:53;19.60;71.70
65231;DHT22;51813;40.666;16.602;2023-05-10T08:41:22;19.60;72.10
65231;DHT22;51813;40.666;16.602;2023-05-10T08:43:53;19.60;72.00
65231;DHT22;51813;40.666;16.602;2023-05-10T08:46:20;19.60;72.10
65231;DHT22;51813;40.666;16.602;2023-05-10T08:48:47;19.60;72.10
65231;DHT22;51813;40.666;16.602;2023-05-10T08:51:15;19.60;72.20
65231;DHT22;51813;40.666;16.602;2023-05-10T08:53:44;19.70;72.50
65231;DHT22;51813;40.666;16.602;2023-05-10T08:56:10;19.70;72.40
65231;DHT22;51813;40.666;16.602;2023-05-10T08:58:36;19.70;73.10
65231;DHT22;51813;40.666;16.602;2023-05-10T09:01:03;19.70;72.70
65231;DHT22;51813;40.666;16.602;2023-05-10T09:03:30;19.70;72.90
65231;DHT22;51813;40.666;16.602;2023-05-10T09:05:55;19.70;72.70
65231;DHT22;51813;40.666;16.602;2023-05-10T09:08:23;19.70;72.80
65231;DHT22;51813;40.666;16.602;2023-05-10T09:10:51;19.70;72.50
65231;DHT22;51813;40.666;16.602;2023-05-10T09:13:17;19.80;72.20
65231;DHT22;51813;40.666;16.602;2023-05-10T09:15:44;19.80;71.60
65231;DHT22;51813;40.666;16.602;2023-05-10T09:18:10;19.80;71.30
65231;DHT22;51813;40.666;16.602;2023-05-10T09:20:36;19.80;71.60
65231;DHT22;51813;40.666;16.602;2023-05-10T09:23:01;19.80;72.30
65231;DHT22;51813;40.666;16.602;2023-05-10T09:25:27;19.80;71.90
65231;DHT22;51813;40.666;16.602;2023-05-10T09:27:53;19.80;71.40
65231;DHT22;51813;40.666;16.602;2023-05-10T09:30:27;19.80;71.30
65231;DHT22;51813;40.666;16.602;2023-05-10T09:32:53;19.80;71.50
65231;DHT22;51813;40.666;16.602;2023-05-10T09:35:21;19.80;71.40
65231;DHT22;51813;40.666;16.602;2023-05-10T09:37:49;19.80;71.60
65231;DHT22;51813;40.666;16.602;2023-05-10T09:40:17;19.80;71.30
65231;DHT22;51813;40.666;16.602;2023-05-10T09:45:27;19.90;71.30
65231;DHT22;51813;40.666;16.602;2023-05-10T09:47:54;19.90;70.90
65231;DHT22;51813;40.666;16.602;2023-05-10T09:50:20;19.90;71.00
65231;DHT22;51813;40.666;16.602;2023-05-10T09:52:57;19.90;70.70
65231;DHT22;51813;40.666;16.602;2023-05-10T09:55:25;19.90;70.80
65231;DHT22;51813;40.666;16.602;2023-05-10T09:58:01;20.00;70.50
65231;DHT22;51813;40.666;16.602;2023-05-10T10:00:28;20.00;70.30
65231;DHT22;51813;40.666;16.602;2023-05-10T10:02:58;20.00;70.50
65231;DHT22;51813;40.666;16.602;2023-05-10T10:05:34;20.00;70.10
65231;DHT22;51813;40.666;16.602;2023-05-10T10:08:04;20.00;70.10
65231;DHT22;51813;40.666;16.602;2023-05-10T10:10:32;19.90;69.80
65231;DHT22;51813;40.666;16.602;2023-05-10T10:12:58;19.90;69.90
65231;DHT22;51813;40.666;16.602;2023-05-10T10:15:24;19.90;69.80
65231;DHT22;51813;40.666;16.602;2023-05-10T10:17:51;19.90;69.30
65231;DHT22;51813;40.666;16.602;2023-05-10T10:20:19;20.00;69.60
65231;DHT22;51813;40.666;16.602;2023-05-10T10:22:45;19.90;69.30
65231;DHT22;51813;40.666;16.602;2023-05-10T10:25:12;19.90;69.10
65231;DHT22;51813;40.666;16.602;2023-05-10T10:27:49;19.90;69.20
65231;DHT22;51813;40.666;16.602;2023-05-10T10:30:31;20.00;68.90
65231;DHT22;51813;40.666;16.602;2023-05-10T10:36:04;19.90;68.70
65231;DHT22;51813;40.666;16.602;2023-05-10T10:38:59;19.90;68.60
65231;DHT22;51813;40.666;16.602;2023-05-10T10:41:37;19.90;68.90
65231;DHT22;51813;40.666;16.602;2023-05-10T10:52:27;19.90;70.20
65231;DHT22;51813;40.666;16.602;2023-05-10T10:55:12;19.80;69.40
65231;DHT22;51813;40.666;16.602;2023-05-10T11:02:52;19.80;69.30
65231;DHT22;51813;40.666;16.602;2023-05-10T11:05:42;19.80;69.60
65231;DHT22;51813;40.666;16.602;2023-05-10T11:08:19;19.90;69.40
65231;DHT22;51813;40.666;16.602;2023-05-10T11:10:53;19.80;69.20
65231;DHT22;51813;40.666;16.602;2023-05-10T11:13:31;19.80;69.20
65231;DHT22;51813;40.666;16.602;2023-05-10T11:15:57;19.80;69.30
65231;DHT22;51813;40.666;16.602;2023-05-10T11:18:29;19.80;69.10
65231;DHT22;51813;40.666;16.602;2023-05-10T11:23:21;19.80;69.70
65231;DHT22;51813;40.666;16.602;2023-05-10T11:25:48;19.90;69.60
65231;DHT22;51813;40.666;16.602;2023-05-10T11:28:16;20.00;69.20
65231;DHT22;51813;40.666;16.602;2023-05-10T11:30:43;20.20;68.70
65231;DHT22;51813;40.666;16.602;2023-05-10T11:33:11;20.30;68.00
65231;DHT22;51813;40.666;16.602;2023-05-10T11:35:40;20.50;67.40
65231;DHT22;51813;40.666;16.602;2023-05-10T11:38:10;20.60;66.90
65231;DHT22;51813;40.666;16.602;2023-05-10T11:40:37;20.80;66.20
65231;DHT22;51813;40.666;16.602;2023-05-10T11:43:03;20.90;65.90
65231;DHT22;51813;40.666;16.602;2023-05-10T11:45:32;21.00;65.70
65231;DHT22;51813;40.666;16.602;2023-05-10T11:47:59;21.20;65.00
65231;DHT22;51813;40.666;16.602;2023-05-10T11:50:25;21.30;64.70
65231;DHT22;51813;40.666;16.602;2023-05-10T11:52:55;21.40;64.40
65231;DHT22;51813;40.666;16.602;2023-05-10T11:55:22;21.40;64.10
65231;DHT22;51813;40.666;16.602;2023-05-10T11:57:52;21.50;63.90
65231;DHT22;51813;40.666;16.602;2023-05-10T12:00:18;21.60;63.60
65231;DHT22;51813;40.666;16.602;2023-05-10T12:02:43;21.60;63.30
65231;DHT22;51813;40.666;16.602;2023-05-10T12:05:09;21.70;63.20
65231;DHT22;51813;40.666;16.602;2023-05-10T12:07:35;21.80;63.00
65231;DHT22;51813;40.666;16.602;2023-05-10T12:10:12;21.80;62.70
65231;DHT22;51813;40.666;16.602;2023-05-10T12:12:44;21.80;63.00
65231;DHT22;51813;40.666;16.602;2023-05-10T12:17:44;21.80;63.30
65231;DHT22;51813;40.666;16.602;2023-05-10T12:20:30;21.80;62.80
65231;DHT22;51813;40.666;16.602;2023-05-10T12:22:57;21.90;62.40
65231;DHT22;51813;40.666;16.602;2023-05-10T12:25:30;22.00;63.20
65231;DHT22;51813;40.666;16.602;2023-05-10T12:27:57;22.00;62.30
65231;DHT22;51813;40.666;16.602;2023-05-10T12:30:24;22.00;62.10
65231;DHT22;51813;40.666;16.602;2023-05-10T12:32:50;22.00;62.40
65231;DHT22;51813;40.666;16.602;2023-05-10T12:35:16;22.00;62.40
65231;DHT22;51813;40.666;16.602;2023-05-10T12:37:43;22.10;62.10
65231;DHT22;51813;40.666;16.602;2023-05-10T12:40:10;22.00;62.30
65231;DHT22;51813;40.666;16.602;2023-05-10T12:42:38;22.00;62.10
65231;DHT22;51813;40.666;16.602;2023-05-10T12:45:05;22.10;62.00
65231;DHT22;51813;40.666;16.602;2023-05-10T12:47:32;22.10;61.90
65231;DHT22;51813;40.666;16.602;2023-05-10T12:49:59;22.20;61.70
65231;DHT22;51813;40.666;16.602;2023-05-10T12:52:25;22.20;61.40
65231;DHT22;51813;40.666;16.602;2023-05-10T12:54:52;22.20;62.30
65231;DHT22;51813;40.666;16.602;2023-05-10T12:57:18;22.30;61.30
65231;DHT22;51813;40.666;16.602;2023-05-10T12:59:44;22.30;61.20
65231;DHT22;51813;40.666;16.602;2023-05-10T13:02:09;22.30;61.70
65231;DHT22;51813;40.666;16.602;2023-05-10T13:04:35;22.30;61.50
65231;DHT22;51813;40.666;16.602;2023-05-10T13:07:07;22.30;61.80
65231;DHT22;51813;40.666;16.602;2023-05-10T13:09:33;22.30;61.30
65231;DHT22;51813;40.666;16.602;2023-05-10T13:11:59;22.40;61.20
65231;DHT22;51813;40.666;16.602;2023-05-10T13:14:25;22.40;60.90
65231;DHT22;51813;40.666;16.602;2023-05-10T13:16:51;22.40;61.10
65231;DHT22;51813;40.666;16.602;2023-05-10T13:19:17;22.40;61.20
65231;DHT22;51813;40.666;16.602;2023-05-10T13:21:43;22.40;61.10
65231;DHT22;51813;40.666;16.602;2023-05-10T13:24:10;22.40;61.00
65231;DHT22;51813;40.666;16.602;2023-05-10T13:26:36;22.30;61.60
65231;DHT22;51813;40.666;16.602;2023-05-10T13:29:02;22.30;61.50
65231;DHT22;51813;40.666;16.602;2023-05-10T13:31:28;22.40;61.20
65231;DHT22;51813;40.666;16.602;2023-05-10T13:33:54;22.50;60.80
65231;DHT22;51813;40.666;16.602;2023-05-10T13:36:19;22.40;60.90
65231;DHT22;51813;40.666;16.602;2023-05-10T13:38:45;22.40;60.90
65231;DHT22;51813;40.666;16.602;2023-05-10T13:41:11;22.50;61.20
65231;DHT22;51813;40.666;16.602;2023-05-10T13:43:37;22.40;61.00
65231;DHT22;51813;40.666;16.602;2023-05-10T13:46:02;22.50;60.70
65231;DHT22;51813;40.666;16.602;2023-05-10T13:48:28;22.50;60.90
65231;DHT22;51813;40.666;16.602;2023-05-10T13:50:54;22.60;60.70
65231;DHT22;51813;40.666;16.602;2023-05-10T13:53:20;22.70;60.20
65231;DHT22;51813;40.666;16.602;2023-05-10T13:55:46;22.70;60.10
65231;DHT22;51813;40.666;16.602;2023-05-10T13:58:12;22.70;59.90
65231;DHT22;51813;40.666;16.602;2023-05-10T14:00:38;22.80;59.90
65231;DHT22;51813;40.666;16.602;2023-05-10T14:03:03;22.70;60.00
65231;DHT22;51813;40.666;16.602;2023-05-10T14:05:30;22.70;60.00
65231;DHT22;51813;40.666;16.602;2023-05-10T14:07:56;22.80;60.00
65231;DHT22;51813;40.666;16.602;2023-05-10T14:10:22;22.70;60.10
65231;DHT22;51813;40.666;16.602;2023-05-10T14:12:48;22.70;60.30
65231;DHT22;51813;40.666;16.602;2023-05-10T14:15:13;22.70;60.30
65231;DHT22;51813;40.666;16.602;2023-05-10T14:17:39;22.60;60.40
65231;DHT22;51813;40.666;16.602;2023-05-10T14:20:05;22.70;60.10
65231;DHT22;51813;40.666;16.602;2023-05-10T14:22:31;22.60;60.20
65231;DHT22;51813;40.666;16.602;2023-05-10T14:24:57;22.70;60.00
65231;DHT22;51813;40.666;16.602;2023-05-10T14:27:23;22.80;60.00
65231;DHT22;51813;40.666;16.602;2023-05-10T14:29:49;22.80;59.90
65231;DHT22;51813;40.666;16.602;2023-05-10T14:32:14;22.80;59.90
65231;DHT22;51813;40.666;16.602;2023-05-10T14:34:40;22.80;59.90
65231;DHT22;51813;40.666;16.602;2023-05-10T14:37:06;22.80;60.10
65231;DHT22;51813;40.666;16.602;2023-05-10T14:39:31;22.80;60.90
65231;DHT22;51813;40.666;16.602;2023-05-10T14:41:58;22.80;60.70
65231;DHT22;51813;40.666;16.602;2023-05-10T14:44:24;22.70;60.80
65231;DHT22;51813;40.666;16.602;2023-05-10T14:46:51;22.70;60.90
65231;DHT22;51813;40.666;16.602;2023-05-10T14:49:16;22.70;60.50
65231;DHT22;51813;40.666;16.602;2023-05-10T14:51:42;22.80;60.70
65231;DHT22;51813;40.666;16.602;2023-05-10T14:54:08;22.80;60.20
65231;DHT22;51813;40.666;16.602;2023-05-10T14:56:33;22.80;60.10
65231;DHT22;51813;40.666;16.602;2023-05-10T14:58:59;22.60;60.70
65231;DHT22;51813;40.666;16.602;2023-05-10T15:01:25;22.60;60.80
65231;DHT22;51813;40.666;16.602;2023-05-10T15:03:51;22.60;60.90
65231;DHT22;51813;40.666;16.602;2023-05-10T15:06:23;22.60;60.40
65231;DHT22;51813;40.666;16.602;2023-05-10T15:08:50;22.60;60.50
65231;DHT22;51813;40.666;16.602;2023-05-10T15:11:16;22.60;60.50
65231;DHT22;51813;40.666;16.602;2023-05-10T15:13:42;22.60;60.50
65231;DHT22;51813;40.666;16.602;2023-05-10T15:16:08;22.60;60.70
65231;DHT22;51813;40.666;16.602;2023-05-10T15:18:34;22.60;60.50
65231;DHT22;51813;40.666;16.602;2023-05-10T15:20:59;22.70;60.10
65231;DHT22;51813;40.666;16.602;2023-05-10T15:23:25;22.60;60.60
65231;DHT22;51813;40.666;16.602;2023-05-10T15:25:51;22.40;61.00
65231;DHT22;51813;40.666;16.602;2023-05-10T15:28:21;22.50;60.90
65231;DHT22;51813;40.666;16.602;2023-05-10T15:30:46;22.50;60.60
65231;DHT22;51813;40.666;16.602;2023-05-10T15:33:12;22.60;60.60
65231;DHT22;51813;40.666;16.602;2023-05-10T15:35:38;22.50;60.80
65231;DHT22;51813;40.666;16.602;2023-05-10T15:38:05;22.60;60.50
65231;DHT22;51813;40.666;16.602;2023-05-10T15:40:31;22.60;60.60
65231;DHT22;51813;40.666;16.602;2023-05-10T15:42:57;22.60;60.80
65231;DHT22;51813;40.666;16.602;2023-05-10T15:45:22;22.50;60.90
65231;DHT22;51813;40.666;16.602;2023-05-10T15:47:48;22.50;60.80
65231;DHT22;51813;40.666;16.602;2023-05-10T15:50:14;22.50;60.60
65231;DHT22;51813;40.666;16.602;2023-05-10T15:52:41;22.50;60.60
65231;DHT22;51813;40.666;16.602;2023-05-10T15:55:08;22.60;60.60
65231;DHT22;51813;40.666;16.602;2023-05-10T15:57:41;22.50;60.60
65231;DHT22;51813;40.666;16.602;2023-05-10T16:00:08;22.60;60.30
65231;DHT22;51813;40.666;16.602;2023-05-10T16:02:34;22.60;60.50
65231;DHT22;51813;40.666;16.602;2023-05-10T16:05:00;22.50;60.70